sensor_id;sensor_type;location;lat;lon;timestamp;temperature;humidity
36660;DHT22;22654;51.054;3.654;2022-11-25T00:01:06;11.00;99.90
36660;DHT22;22654;51.054;3.654;2022-11-25T00:03:33;10.90;99.90
36660;DHT22;22654;51.054;3.654;2022-11-25T00:06:28;10.80;99.90
36660;DHT22;22654;51.054;3.654;2022-11-25T00:08:56;10.70;99.90
36660;DHT22;22654;51.054;3.654;2022-11-25T00:11:29;10.60;99.90
36660;DHT22;22654;51.054;3.654;2022-11-25T00:14:00;10.50;99.90
36660;DHT22;22654;51.054;3.654;2022-11-25T00:16:27;10.60;99.90
36660;DHT22;22654;51.054;3.654;2022-11-25T00:18:54;10.60;99.90
36660;DHT22;22654;51.054;3.654;2022-11-25T00:21:22;10.50;99.90
36660;DHT22;22654;51.054;3.654;2022-11-25T00:24:00;10.50;99.90
36660;DHT22;22654;51.054;3.654;2022-11-25T00:26:27;10.40;99.90
36660;DHT22;22654;51.054;3.654;2022-11-25T00:29:05;10.50;99.90
36660;DHT22;22654;51.054;3.654;2022-11-25T00:31:35;10.50;99.90
36660;DHT22;22654;51.054;3.654;2022-11-25T00:34:02;10.40;99.90
36660;DHT22;22654;51.054;3.654;2022-11-25T00:36:33;10.50;99.90
36660;DHT22;22654;51.054;3.654;2022-11-25T00:39:05;10.50;99.90
36660;DHT22;22654;51.054;3.654;2022-11-25T00:41:31;10.50;99.90
36660;DHT22;22654;51.054;3.654;2022-11-25T00:44:17;10.30;99.90
36660;DHT22;22654;51.054;3.654;2022-11-25T00:47:07;10.10;99.90
36660;DHT22;22654;51.054;3.654;2022-11-25T00:49:35;10.00;99.90
36660;DHT22;22654;51.054;3.654;2022-11-25T00:52:01;10.10;99.90
36660;DHT22;22654;51.054;3.654;2022-11-25T00:54:27;10.10;99.90
36660;DHT22;22654;51.054;3.654;2022-11-25T00:56:59;10.10;99.90
36660;DHT22;22654;51.054;3.654;2022-11-25T00:59:28;10.00;99.90
36660;DHT22;22654;51.054;3.654;2022-11-25T01:01:55;9.90;99.90
36660;DHT22;22654;51.054;3.654;2022-11-25T01:04:21;9.80;99.90
36660;DHT22;22654;51.054;3.654;2022-11-25T01:06:47;9.80;99.90
36660;DHT22;22654;51.054;3.654;2022-11-25T01:09:14;9.80;99.90
36660;DHT22;22654;51.054;3.654;2022-11-25T01:11:40;9.80;99.90
36660;DHT22;22654;51.054;3.654;2022-11-25T01:14:07;9.70;99.90
36660;DHT22;22654;51.054;3.654;2022-11-25T01:16:33;9.70;99.90
36660;DHT22;22654;51.054;3.654;2022-11-25T01:19:00;9.80;99.90
36660;DHT22;22654;51.054;3.654;2022-11-25T01:21:29;9.90;99.90
36660;DHT22;22654;51.054;3.654;2022-11-25T01:23:55;9.70;99.90
36660;DHT22;22654;51.054;3.654;2022-11-25T01:26:24;9.60;99.90
36660;DHT22;22654;51.054;3.654;2022-11-25T01:28:56;9.70;99.90
36660;DHT22;22654;51.054;3.654;2022-11-25T01:31:23;9.70;99.90
36660;DHT22;22654;51.054;3.654;2022-11-25T01:34:00;9.80;99.90
36660;DHT22;22654;51.054;3.654;2022-11-25T01:36:26;9.90;99.90
36660;DHT22;22654;51.054;3.654;2022-11-25T01:38:57;9.80;99.90
36660;DHT22;22654;51.054;3.654;2022-11-25T01:41:25;9.70;99.90
36660;DHT22;22654;51.054;3.654;2022-11-25T01:44:14;9.60;99.90
36660;DHT22;22654;51.054;3.654;2022-11-25T01:49:43;9.70;99.90
36660;DHT22;22654;51.054;3.654;2022-11-25T01:52:21;9.60;99.90
36660;DHT22;22654;51.054;3.654;2022-11-25T01:57:30;9.70;99.90
36660;DHT22;22654;51.054;3.654;2022-11-25T01:59:59;9.70;99.90
36660;DHT22;22654;51.054;3.654;2022-11-25T02:02:27;9.70;99.90
36660;DHT22;22654;51.054;3.654;2022-11-25T02:04:54;9.60;99.90
36660;DHT22;22654;51.054;3.654;2022-11-25T02:07:28;9.50;99.90
36660;DHT22;22654;51.054;3.654;2022-11-25T02:09:56;9.50;99.90
36660;DHT22;22654;51.054;3.654;2022-11-25T02:12:23;9.50;99.90
36660;DHT22;22654;51.054;3.654;2022-11-25T02:14:50;9.40;99.90
36660;DHT22;22654;51.054;3.654;2022-11-25T02:17:16;9.30;99.90
36660;DHT22;22654;51.054;3.654;2022-11-25T02:19:59;9.20;99.90
36660;DHT22;22654;51.054;3.654;2022-11-25T02:22:58;9.20;99.90
36660;DHT22;22654;51.054;3.654;2022-11-25T02:25:35;9.20;99.90
36660;DHT22;22654;51.054;3.654;2022-11-25T02:30:39;9.20;99.90
36660;DHT22;22654;51.054;3.654;2022-11-25T02:33:05;9.20;99.90
36660;DHT22;22654;51.054;3.654;2022-11-25T02:35:40;9.20;99.90
36660;DHT22;22654;51.054;3.654;2022-11-25T02:38:19;9.10;99.90
36660;DHT22;22654;51.054;3.654;2022-11-25T02:40:51;9.00;99.90
36660;DHT22;22654;51.054;3.654;2022-11-25T02:43:18;8.90;99.90
36660;DHT22;22654;51.054;3.654;2022-11-25T02:45:46;9.10;99.90
36660;DHT22;22654;51.054;3.654;2022-11-25T02:48:13;9.00;99.90
36660;DHT22;22654;51.054;3.654;2022-11-25T02:50:39;9.00;99.90
36660;DHT22;22654;51.054;3.654;2022-11-25T02:53:04;9.00;99.90
36660;DHT22;22654;51.054;3.654;2022-11-25T02:55:30;8.90;99.90
36660;DHT22;22654;51.054;3.654;2022-11-25T02:57:56;9.00;99.90
36660;DHT22;22654;51.054;3.654;2022-11-25T03:00:22;8.90;99.90
36660;DHT22;22654;51.054;3.654;2022-11-25T03:02:51;8.90;99.90
36660;DHT22;22654;51.054;3.654;2022-11-25T03:05:21;8.90;99.90
36660;DHT22;22654;51.054;3.654;2022-11-25T03:07:47;9.00;99.90
36660;DHT22;22654;51.054;3.654;2022-11-25T03:10:15;9.10;99.90
36660;DHT22;22654;51.054;3.654;2022-11-25T03:12:41;9.10;99.90
36660;DHT22;22654;51.054;3.654;2022-11-25T03:15:08;9.20;99.90
36660;DHT22;22654;51.054;3.654;2022-11-25T03:17:33;9.20;99.90
36660;DHT22;22654;51.054;3.654;2022-11-25T03:19:59;9.30;99.90
36660;DHT22;22654;51.054;3.654;2022-11-25T03:22:25;9.30;99.90
36660;DHT22;22654;51.054;3.654;2022-11-25T03:24:51;9.40;99.90
36660;DHT22;22654;51.054;3.654;2022-11-25T03:27:18;9.40;99.90
36660;DHT22;22654;51.054;3.654;2022-11-25T03:29:44;9.50;99.90
36660;DHT22;22654;51.054;3.654;2022-11-25T03:32:11;9.50;99.90
36660;DHT22;22654;51.054;3.654;2022-11-25T03:34:37;9.60;99.90
36660;DHT22;22654;51.054;3.654;2022-11-25T03:37:03;9.70;99.90
36660;DHT22;22654;51.054;3.654;2022-11-25T03:39:37;9.60;99.90
36660;DHT22;22654;51.054;3.654;2022-11-25T03:42:05;9.70;99.90
36660;DHT22;22654;51.054;3.654;2022-11-25T03:44:31;9.70;99.90
36660;DHT22;22654;51.054;3.654;2022-11-25T03:46:57;9.60;99.90
36660;DHT22;22654;51.054;3.654;2022-11-25T03:49:23;9.70;99.90
36660;DHT22;22654;51.054;3.654;2022-11-25T03:51:49;9.80;99.90
36660;DHT22;22654;51.054;3.654;2022-11-25T03:54:16;9.70;99.90
36660;DHT22;22654;51.054;3.654;2022-11-25T03:57:12;9.80;99.90
36660;DHT22;22654;51.054;3.654;2022-11-25T03:59:38;9.80;99.90
36660;DHT22;22654;51.054;3.654;2022-11-25T04:02:05;9.70;99.90
36660;DHT22;22654;51.054;3.654;2022-11-25T04:04:31;9.70;99.90
36660;DHT22;22654;51.054;3.654;2022-11-25T04:06:57;9.70;99.90
36660;DHT22;22654;51.054;3.654;2022-11-25T04:09:23;9.80;99.90
36660;DHT22;22654;51.054;3.654;2022-11-25T04:11:51;9.80;99.90
36660;DHT22;22654;51.054;3.654;2022-11-25T04:14:48;10.00;99.90
36660;DHT22;22654;51.054;3.654;2022-11-25T04:17:14;9.80;99.90
36660;DHT22;22654;51.054;3.654;2022-11-25T04:19:40;9.70;99.90
36660;DHT22;22654;51.054;3.654;2022-11-25T04:22:06;9.60;99.90
36660;DHT22;22654;51.054;3.654;2022-11-25T04:24:36;9.60;99.90
36660;DHT22;22654;51.054;3.654;2022-11-25T04:27:03;9.70;99.90
36660;DHT22;22654;51.054;3.654;2022-11-25T04:29:29;9.70;99.90
36660;DHT22;22654;51.054;3.654;2022-11-25T04:31:58;9.80;99.90
36660;DHT22;22654;51.054;3.654;2022-11-25T04:34:24;9.80;99.90
36660;DHT22;22654;51.054;3.654;2022-11-25T04:36:51;9.80;99.90
36660;DHT22;22654;51.054;3.654;2022-11-25T04:39:17;9.70;99.90
36660;DHT22;22654;51.054;3.654;2022-11-25T04:41:44;9.50;99.90
36660;DHT22;22654;51.054;3.654;2022-11-25T04:44:11;9.40;99.90
36660;DHT22;22654;51.054;3.654;2022-11-25T04:46:40;9.30;99.90
36660;DHT22;22654;51.054;3.654;2022-11-25T04:49:07;9.20;99.90
36660;DHT22;22654;51.054;3.654;2022-11-25T04:51:32;9.10;99.90
36660;DHT22;22654;51.054;3.654;2022-11-25T04:54:02;9.10;99.90
36660;DHT22;22654;51.054;3.654;2022-11-25T04:56:32;9.10;99.90
36660;DHT22;22654;51.054;3.654;2022-11-25T04:58:58;9.10;99.90
36660;DHT22;22654;51.054;3.654;2022-11-25T05:01:45;9.10;99.90
36660;DHT22;22654;51.054;3.654;2022-11-25T05:04:44;9.00;99.90
36660;DHT22;22654;51.054;3.654;2022-11-25T05:07:13;8.80;99.90
36660;DHT22;22654;51.054;3.654;2022-11-25T05:09:41;8.70;99.90
36660;DHT22;22654;51.054;3.654;2022-11-25T05:12:21;8.70;99.90
36660;DHT22;22654;51.054;3.654;2022-11-25T05:14:48;8.50;99.90
36660;DHT22;22654;51.054;3.654;2022-11-25T05:17:24;8.40;99.90
36660;DHT22;22654;51.054;3.654;2022-11-25T05:19:50;8.30;99.90
36660;DHT22;22654;51.054;3.654;2022-11-25T05:22:20;8.20;99.90
36660;DHT22;22654;51.054;3.654;2022-11-25T05:24:46;8.30;99.90
36660;DHT22;22654;51.054;3.654;2022-11-25T05:27:13;8.30;99.90
36660;DHT22;22654;51.054;3.654;2022-11-25T05:29:39;8.40;99.90
36660;DHT22;22654;51.054;3.654;2022-11-25T05:32:07;8.50;99.90
36660;DHT22;22654;51.054;3.654;2022-11-25T05:34:33;8.50;99.90
36660;DHT22;22654;51.054;3.654;2022-11-25T05:36:58;8.50;99.90
36660;DHT22;22654;51.054;3.654;2022-11-25T05:39:25;8.60;99.90
36660;DHT22;22654;51.054;3.654;2022-11-25T05:42:14;8.40;99.90
36660;DHT22;22654;51.054;3.654;2022-11-25T05:44:39;8.40;99.90
36660;DHT22;22654;51.054;3.654;2022-11-25T05:47:08;8.50;99.90
36660;DHT22;22654;51.054;3.654;2022-11-25T05:49:34;8.30;99.90
36660;DHT22;22654;51.054;3.654;2022-11-25T05:52:00;8.10;99.90
36660;DHT22;22654;51.054;3.654;2022-11-25T05:54:29;7.90;99.90
36660;DHT22;22654;51.054;3.654;2022-11-25T05:56:55;7.80;99.90
36660;DHT22;22654;51.054;3.654;2022-11-25T05:59:37;7.90;99.90
36660;DHT22;22654;51.054;3.654;2022-11-25T06:02:10;7.80;99.90
36660;DHT22;22654;51.054;3.654;2022-11-25T06:04:36;7.80;99.90
36660;DHT22;22654;51.054;3.654;2022-11-25T06:07:02;7.60;99.90
36660;DHT22;22654;51.054;3.654;2022-11-25T06:09:29;7.70;99.90
36660;DHT22;22654;51.054;3.654;2022-11-25T06:11:55;7.90;99.90
36660;DHT22;22654;51.054;3.654;2022-11-25T06:14:21;7.90;99.90
36660;DHT22;22654;51.054;3.654;2022-11-25T06:16:49;8.10;99.90
36660;DHT22;22654;51.054;3.654;2022-11-25T06:19:31;8.20;99.90
36660;DHT22;22654;51.054;3.654;2022-11-25T06:21:57;8.10;99.90
36660;DHT22;22654;51.054;3.654;2022-11-25T06:24:26;8.10;99.90
36660;DHT22;22654;51.054;3.654;2022-11-25T06:26:57;8.10;99.90
36660;DHT22;22654;51.054;3.654;2022-11-25T06:29:25;7.90;99.90
36660;DHT22;22654;51.054;3.654;2022-11-25T06:31:51;7.80;99.90
36660;DHT22;22654;51.054;3.654;2022-11-25T06:34:39;7.70;99.90
36660;DHT22;22654;51.054;3.654;2022-11-25T06:37:13;7.70;99.90
36660;DHT22;22654;51.054;3.654;2022-11-25T06:39:39;7.80;99.90
36660;DHT22;22654;51.054;3.654;2022-11-25T06:42:04;8.00;99.90
36660;DHT22;22654;51.054;3.654;2022-11-25T06:44:30;8.00;99.90
36660;DHT22;22654;51.054;3.654;2022-11-25T06:46:56;8.00;99.90
36660;DHT22;22654;51.054;3.654;2022-11-25T06:49:22;8.00;99.90
36660;DHT22;22654;51.054;3.654;2022-11-25T06:51:50;8.20;99.90
36660;DHT22;22654;51.054;3.654;2022-11-25T06:54:16;8.30;99.90
36660;DHT22;22654;51.054;3.654;2022-11-25T06:56:42;8.40;99.90
36660;DHT22;22654;51.054;3.654;2022-11-25T06:59:08;8.40;99.90
36660;DHT22;22654;51.054;3.654;2022-11-25T07:01:34;8.60;99.90
36660;DHT22;22654;51.054;3.654;2022-11-25T07:04:02;8.60;99.90
36660;DHT22;22654;51.054;3.654;2022-11-25T07:06:29;8.60;99.90
36660;DHT22;22654;51.054;3.654;2022-11-25T07:08:56;8.70;99.90
36660;DHT22;22654;51.054;3.654;2022-11-25T07:11:26;8.70;99.90
36660;DHT22;22654;51.054;3.654;2022-11-25T07:13:57;8.60;99.90
36660;DHT22;22654;51.054;3.654;2022-11-25T07:16:23;8.70;99.90
36660;DHT22;22654;51.054;3.654;2022-11-25T07:18:49;8.80;99.90
36660;DHT22;22654;51.054;3.654;2022-11-25T07:21:17;8.80;99.90
36660;DHT22;22654;51.054;3.654;2022-11-25T07:23:45;8.90;99.90
36660;DHT22;22654;51.054;3.654;2022-11-25T07:26:11;8.90;99.90
36660;DHT22;22654;51.054;3.654;2022-11-25T07:28:38;8.90;99.90
36660;DHT22;22654;51.054;3.654;2022-11-25T07:31:08;9.10;99.90
36660;DHT22;22654;51.054;3.654;2022-11-25T07:33:34;9.10;99.90
36660;DHT22;22654;51.054;3.654;2022-11-25T07:36:02;9.20;99.90
36660;DHT22;22654;51.054;3.654;2022-11-25T07:38:28;9.20;99.90
36660;DHT22;22654;51.054;3.654;2022-11-25T07:40:54;9.10;99.90
36660;DHT22;22654;51.054;3.654;2022-11-25T07:43:19;9.10;99.90
36660;DHT22;22654;51.054;3.654;2022-11-25T07:45:46;9.20;99.90
36660;DHT22;22654;51.054;3.654;2022-11-25T07:48:11;9.10;99.90
36660;DHT22;22654;51.054;3.654;2022-11-25T07:50:40;9.20;99.90
36660;DHT22;22654;51.054;3.654;2022-11-25T07:53:06;9.00;99.90
36660;DHT22;22654;51.054;3.654;2022-11-25T07:55:32;8.90;99.90
36660;DHT22;22654;51.054;3.654;2022-11-25T07:57:58;9.10;99.90
36660;DHT22;22654;51.054;3.654;2022-11-25T08:00:23;9.10;99.90
36660;DHT22;22654;51.054;3.654;2022-11-25T08:02:49;9.00;99.90
36660;DHT22;22654;51.054;3.654;2022-11-25T08:05:15;9.00;99.90
36660;DHT22;22654;51.054;3.654;2022-11-25T08:07:41;9.10;99.90
36660;DHT22;22654;51.054;3.654;2022-11-25T08:10:07;9.10;99.90
36660;DHT22;22654;51.054;3.654;2022-11-25T08:12:33;9.10;99.90
36660;DHT22;22654;51.054;3.654;2022-11-25T08:14:59;9.20;99.90
36660;DHT22;22654;51.054;3.654;2022-11-25T08:17:25;9.20;99.90
36660;DHT22;22654;51.054;3.654;2022-11-25T08:19:51;9.10;99.90
36660;DHT22;22654;51.054;3.654;2022-11-25T08:22:16;9.10;99.90
36660;DHT22;22654;51.054;3.654;2022-11-25T08:24:42;9.00;99.90
36660;DHT22;22654;51.054;3.654;2022-11-25T08:27:08;8.90;99.90
36660;DHT22;22654;51.054;3.654;2022-11-25T08:29:34;8.80;99.90
36660;DHT22;22654;51.054;3.654;2022-11-25T08:32:00;8.70;99.90
36660;DHT22;22654;51.054;3.654;2022-11-25T08:34:25;8.80;99.90
36660;DHT22;22654;51.054;3.654;2022-11-25T08:36:58;8.80;99.90
36660;DHT22;22654;51.054;3.654;2022-11-25T08:39:24;8.80;99.90
36660;DHT22;22654;51.054;3.654;2022-11-25T08:41:50;8.90;99.90
36660;DHT22;22654;51.054;3.654;2022-11-25T08:44:17;9.10;99.90
36660;DHT22;22654;51.054;3.654;2022-11-25T08:46:43;9.30;99.90
36660;DHT22;22654;51.054;3.654;2022-11-25T08:49:11;9.40;99.90
36660;DHT22;22654;51.054;3.654;2022-11-25T08:51:38;9.50;99.90
36660;DHT22;22654;51.054;3.654;2022-11-25T08:54:05;9.50;99.90
36660;DHT22;22654;51.054;3.654;2022-11-25T08:56:31;9.60;99.90
36660;DHT22;22654;51.054;3.654;2022-11-25T08:58:57;9.50;99.90
36660;DHT22;22654;51.054;3.654;2022-11-25T09:01:25;9.50;99.90
36660;DHT22;22654;51.054;3.654;2022-11-25T09:03:52;9.60;99.90
36660;DHT22;22654;51.054;3.654;2022-11-25T09:06:20;9.50;99.90
36660;DHT22;22654;51.054;3.654;2022-11-25T09:08:47;9.50;99.90
36660;DHT22;22654;51.054;3.654;2022-11-25T09:11:13;9.50;99.90
36660;DHT22;22654;51.054;3.654;2022-11-25T09:13:39;9.60;99.90
36660;DHT22;22654;51.054;3.654;2022-11-25T09:16:05;9.60;99.90
36660;DHT22;22654;51.054;3.654;2022-11-25T09:18:31;9.60;99.90
36660;DHT22;22654;51.054;3.654;2022-11-25T09:21:09;9.50;99.90
36660;DHT22;22654;51.054;3.654;2022-11-25T09:23:36;9.40;99.90
36660;DHT22;22654;51.054;3.654;2022-11-25T09:26:04;9.30;99.90
36660;DHT22;22654;51.054;3.654;2022-11-25T09:28:32;9.40;99.90
36660;DHT22;22654;51.054;3.654;2022-11-25T09:30:58;9.40;99.90
36660;DHT22;22654;51.054;3.654;2022-11-25T09:33:24;9.50;99.90
36660;DHT22;22654;51.054;3.654;2022-11-25T09:35:50;9.70;99.90
36660;DHT22;22654;51.054;3.654;2022-11-25T09:38:16;9.70;99.90
36660;DHT22;22654;51.054;3.654;2022-11-25T09:41:05;9.70;99.90
36660;DHT22;22654;51.054;3.654;2022-11-25T09:47:08;9.90;99.90
36660;DHT22;22654;51.054;3.654;2022-11-25T09:55:14;10.10;99.90
36660;DHT22;22654;51.054;3.654;2022-11-25T10:00:19;10.20;99.90
36660;DHT22;22654;51.054;3.654;2022-11-25T10:05:34;10.30;99.90
36660;DHT22;22654;51.054;3.654;2022-11-25T10:08:09;10.40;99.90
36660;DHT22;22654;51.054;3.654;2022-11-25T10:10:42;10.50;99.90
36660;DHT22;22654;51.054;3.654;2022-11-25T10:13:18;10.50;99.90
36660;DHT22;22654;51.054;3.654;2022-11-25T10:15:50;10.60;99.90
36660;DHT22;22654;51.054;3.654;2022-11-25T10:18:24;10.60;99.90
36660;DHT22;22654;51.054;3.654;2022-11-25T10:20:51;10.70;99.90
36660;DHT22;22654;51.054;3.654;2022-11-25T10:23:23;10.80;99.90
36660;DHT22;22654;51.054;3.654;2022-11-25T10:25:57;11.00;99.90
36660;DHT22;22654;51.054;3.654;2022-11-25T10:28:29;11.10;99.90
36660;DHT22;22654;51.054;3.654;2022-11-25T10:33:51;11.20;99.90
36660;DHT22;22654;51.054;3.654;2022-11-25T10:36:20;11.20;99.90
36660;DHT22;22654;51.054;3.654;2022-11-25T10:41:27;11.40;99.90
36660;DHT22;22654;51.054;3.654;2022-11-25T10:44:02;11.40;99.90
36660;DHT22;22654;51.054;3.654;2022-11-25T10:46:36;11.50;99.90
36660;DHT22;22654;51.054;3.654;2022-11-25T10:52:00;11.60;99.90
36660;DHT22;22654;51.054;3.654;2022-11-25T10:54:27;11.50;99.90
36660;DHT22;22654;51.054;3.654;2022-11-25T10:56:59;11.60;99.90
36660;DHT22;22654;51.054;3.654;2022-11-25T10:59:27;11.50;99.90
36660;DHT22;22654;51.054;3.654;2022-11-25T11:02:12;11.60;99.90
36660;DHT22;22654;51.054;3.654;2022-11-25T11:05:01;11.70;99.90
36660;DHT22;22654;51.054;3.654;2022-11-25T11:07:30;11.80;99.90
36660;DHT22;22654;51.054;3.654;2022-11-25T11:12:32;11.90;99.90
36660;DHT22;22654;51.054;3.654;2022-11-25T11:15:19;11.90;99.90
36660;DHT22;22654;51.054;3.654;2022-11-25T11:17:45;12.10;99.90
36660;DHT22;22654;51.054;3.654;2022-11-25T11:20:22;12.00;99.90
36660;DHT22;22654;51.054;3.654;2022-11-25T11:22:56;12.10;99.90
36660;DHT22;22654;51.054;3.654;2022-11-25T11:25:32;12.20;99.90
36660;DHT22;22654;51.054;3.654;2022-11-25T11:28:00;12.10;99.90
36660;DHT22;22654;51.054;3.654;2022-11-25T11:30:31;12.10;99.90
36660;DHT22;22654;51.054;3.654;2022-11-25T11:38:13;12.30;99.90
36660;DHT22;22654;51.054;3.654;2022-11-25T11:40:46;12.40;99.90
36660;DHT22;22654;51.054;3.654;2022-11-25T11:43:35;12.60;99.90
36660;DHT22;22654;51.054;3.654;2022-11-25T11:48:39;13.30;99.90
36660;DHT22;22654;51.054;3.654;2022-11-25T11:54:56;13.80;99.90
36660;DHT22;22654;51.054;3.654;2022-11-25T11:57:22;13.90;99.90
36660;DHT22;22654;51.054;3.654;2022-11-25T11:59:53;14.00;99.90
36660;DHT22;22654;51.054;3.654;2022-11-25T12:11:24;14.00;99.90
36660;DHT22;22654;51.054;3.654;2022-11-25T12:14:41;14.10;99.90
36660;DHT22;22654;51.054;3.654;2022-11-25T12:16:54;14.30;99.90
36660;DHT22;22654;51.054;3.654;2022-11-25T12:19:35;14.60;99.90
36660;DHT22;22654;51.054;3.654;2022-11-25T12:22:27;14.60;99.90
36660;DHT22;22654;51.054;3.654;2022-11-25T12:25:34;14.50;99.90
36660;DHT22;22654;51.054;3.654;2022-11-25T12:28:15;14.50;99.90
36660;DHT22;22654;51.054;3.654;2022-11-25T12:33:22;14.20;99.90
36660;DHT22;22654;51.054;3.654;2022-11-25T12:38:22;13.90;99.90
36660;DHT22;22654;51.054;3.654;2022-11-25T12:44:12;13.60;99.90
36660;DHT22;22654;51.054;3.654;2022-11-25T12:46:45;13.50;99.90
36660;DHT22;22654;51.054;3.654;2022-11-25T12:49:29;13.40;99.90
36660;DHT22;22654;51.054;3.654;2022-11-25T13:00:16;13.70;99.90
36660;DHT22;22654;51.054;3.654;2022-11-25T13:16:24;13.70;99.90
36660;DHT22;22654;51.054;3.654;2022-11-25T13:18:52;13.50;99.90
36660;DHT22;22654;51.054;3.654;2022-11-25T13:21:19;13.60;99.90
36660;DHT22;22654;51.054;3.654;2022-11-25T13:23:50;13.60;99.90
36660;DHT22;22654;51.054;3.654;2022-11-25T13:26:36;13.70;99.90
36660;DHT22;22654;51.054;3.654;2022-11-25T13:34:29;14.20;99.90
36660;DHT22;22654;51.054;3.654;2022-11-25T13:37:00;14.20;99.90
36660;DHT22;22654;51.054;3.654;2022-11-25T13:42:21;14.00;99.90
36660;DHT22;22654;51.054;3.654;2022-11-25T13:44:54;14.10;99.90
36660;DHT22;22654;51.054;3.654;2022-11-25T13:49:57;13.90;99.90
36660;DHT22;22654;51.054;3.654;2022-11-25T13:52:43;13.80;99.90
36660;DHT22;22654;51.054;3.654;2022-11-25T13:57:45;13.30;99.90
36660;DHT22;22654;51.054;3.654;2022-11-25T14:02:46;13.20;99.90
36660;DHT22;22654;51.054;3.654;2022-11-25T14:13:19;13.10;99.90
36660;DHT22;22654;51.054;3.654;2022-11-25T14:24:44;12.60;99.90
36660;DHT22;22654;51.054;3.654;2022-11-25T14:27:20;12.50;99.90
36660;DHT22;22654;51.054;3.654;2022-11-25T14:29:58;12.40;99.90
36660;DHT22;22654;51.054;3.654;2022-11-25T14:32:32;12.30;99.90
36660;DHT22;22654;51.054;3.654;2022-11-25T14:35:19;12.30;99.90
36660;DHT22;22654;51.054;3.654;2022-11-25T14:38:02;12.10;99.90
36660;DHT22;22654;51.054;3.654;2022-11-25T14:40:35;12.00;99.90
36660;DHT22;22654;51.054;3.654;2022-11-25T14:43:16;11.90;99.90
36660;DHT22;22654;51.054;3.654;2022-11-25T14:45:44;11.80;99.90
36660;DHT22;22654;51.054;3.654;2022-11-25T14:48:22;11.80;99.90
36660;DHT22;22654;51.054;3.654;2022-11-25T14:51:02;11.80;99.90
36660;DHT22;22654;51.054;3.654;2022-11-25T14:53:29;11.70;99.90
36660;DHT22;22654;51.054;3.654;2022-11-25T14:55:56;11.70;99.90
36660;DHT22;22654;51.054;3.654;2022-11-25T14:58:25;11.60;99.90
36660;DHT22;22654;51.054;3.654;2022-11-25T15:01:03;11.50;99.90
36660;DHT22;22654;51.054;3.654;2022-11-25T15:03:29;11.50;99.90
36660;DHT22;22654;51.054;3.654;2022-11-25T15:06:00;11.40;99.90
36660;DHT22;22654;51.054;3.654;2022-11-25T15:08:27;11.40;99.90
36660;DHT22;22654;51.054;3.654;2022-11-25T15:11:03;11.20;99.90
36660;DHT22;22654;51.054;3.654;2022-11-25T15:13:42;11.20;99.90
36660;DHT22;22654;51.054;3.654;2022-11-25T15:16:17;11.20;99.90
36660;DHT22;22654;51.054;3.654;2022-11-25T15:21:22;11.00;99.90
36660;DHT22;22654;51.054;3.654;2022-11-25T15:23:49;11.00;99.90
36660;DHT22;22654;51.054;3.654;2022-11-25T15:26:21;10.90;99.90
36660;DHT22;22654;51.054;3.654;2022-11-25T15:29:11;10.80;99.90
36660;DHT22;22654;51.054;3.654;2022-11-25T15:31:38;10.70;99.90
36660;DHT22;22654;51.054;3.654;2022-11-25T15:34:09;10.60;99.90
36660;DHT22;22654;51.054;3.654;2022-11-25T15:36:35;10.50;99.90
36660;DHT22;22654;51.054;3.654;2022-11-25T15:41:51;10.30;99.90
36660;DHT22;22654;51.054;3.654;2022-11-25T15:49:30;9.90;99.90
36660;DHT22;22654;51.054;3.654;2022-11-25T15:52:02;9.90;99.90
36660;DHT22;22654;51.054;3.654;2022-11-25T15:54:38;9.90;99.90
36660;DHT22;22654;51.054;3.654;2022-11-25T15:57:34;9.80;99.90
36660;DHT22;22654;51.054;3.654;2022-11-25T16:00:13;9.70;99.90
36660;DHT22;22654;51.054;3.654;2022-11-25T16:10:32;9.40;99.90
36660;DHT22;22654;51.054;3.654;2022-11-25T16:21:20;9.10;99.90
36660;DHT22;22654;51.054;3.654;2022-11-25T16:23:51;9.10;99.90
36660;DHT22;22654;51.054;3.654;2022-11-25T16:26:27;9.00;99.90
36660;DHT22;22654;51.054;3.654;2022-11-25T16:28:56;9.00;99.90
36660;DHT22;22654;51.054;3.654;2022-11-25T16:31:23;9.00;99.90
36660;DHT22;22654;51.054;3.654;2022-11-25T16:33:58;8.70;99.90
36660;DHT22;22654;51.054;3.654;2022-11-25T16:36:25;8.80;99.90
36660;DHT22;22654;51.054;3.654;2022-11-25T16:38:51;8.80;99.90
36660;DHT22;22654;51.054;3.654;2022-11-25T16:41:23;8.80;99.90
36660;DHT22;22654;51.054;3.654;2022-11-25T16:43:50;8.70;99.90
36660;DHT22;22654;51.054;3.654;2022-11-25T16:46:17;8.70;99.90
36660;DHT22;22654;51.054;3.654;2022-11-25T16:48:44;8.60;99.90
36660;DHT22;22654;51.054;3.654;2022-11-25T16:51:15;8.60;99.90
36660;DHT22;22654;51.054;3.654;2022-11-25T16:53:44;8.60;99.90
36660;DHT22;22654;51.054;3.654;2022-11-25T16:56:23;8.60;99.90
36660;DHT22;22654;51.054;3.654;2022-11-25T16:58:51;8.50;99.90
36660;DHT22;22654;51.054;3.654;2022-11-25T17:01:17;8.40;99.90
36660;DHT22;22654;51.054;3.654;2022-11-25T17:03:44;8.20;99.90
36660;DHT22;22654;51.054;3.654;2022-11-25T17:06:15;8.10;99.90
36660;DHT22;22654;51.054;3.654;2022-11-25T17:08:42;8.10;99.90
36660;DHT22;22654;51.054;3.654;2022-11-25T17:11:14;8.10;99.90
36660;DHT22;22654;51.054;3.654;2022-11-25T17:13:44;8.00;99.90
36660;DHT22;22654;51.054;3.654;2022-11-25T17:16:14;8.00;99.90
36660;DHT22;22654;51.054;3.654;2022-11-25T17:18:41;8.00;99.90
36660;DHT22;22654;51.054;3.654;2022-11-25T17:21:12;8.00;99.90
36660;DHT22;22654;51.054;3.654;2022-11-25T17:23:38;7.90;99.90
36660;DHT22;22654;51.054;3.654;2022-11-25T17:26:04;7.80;99.90
36660;DHT22;22654;51.054;3.654;2022-11-25T17:28:30;7.80;99.90
36660;DHT22;22654;51.054;3.654;2022-11-25T17:30:56;7.60;99.90
36660;DHT22;22654;51.054;3.654;2022-11-25T17:33:21;7.70;99.90
36660;DHT22;22654;51.054;3.654;2022-11-25T17:35:47;7.70;99.90
36660;DHT22;22654;51.054;3.654;2022-11-25T17:38:19;7.70;99.90
36660;DHT22;22654;51.054;3.654;2022-11-25T17:40:46;7.60;99.90
36660;DHT22;22654;51.054;3.654;2022-11-25T17:43:21;7.60;99.90
36660;DHT22;22654;51.054;3.654;2022-11-25T17:45:47;7.60;99.90
36660;DHT22;22654;51.054;3.654;2022-11-25T17:48:15;7.50;99.90
36660;DHT22;22654;51.054;3.654;2022-11-25T17:50:41;7.50;99.90
36660;DHT22;22654;51.054;3.654;2022-11-25T17:53:08;7.50;99.90
36660;DHT22;22654;51.054;3.654;2022-11-25T17:55:38;7.50;99.90
36660;DHT22;22654;51.054;3.654;2022-11-25T17:58:05;7.40;99.90
36660;DHT22;22654;51.054;3.654;2022-11-25T18:00:33;7.40;99.90
36660;DHT22;22654;51.054;3.654;2022-11-25T18:02:59;7.40;99.90
36660;DHT22;22654;51.054;3.654;2022-11-25T18:05:25;7.30;99.90
36660;DHT22;22654;51.054;3.654;2022-11-25T18:07:51;7.30;99.90
36660;DHT22;22654;51.054;3.654;2022-11-25T18:10:23;7.40;99.90
36660;DHT22;22654;51.054;3.654;2022-11-25T18:12:51;7.40;99.90
36660;DHT22;22654;51.054;3.654;2022-11-25T18:15:20;7.40;99.90
36660;DHT22;22654;51.054;3.654;2022-11-25T18:17:48;7.30;99.90
36660;DHT22;22654;51.054;3.654;2022-11-25T18:20:24;7.40;99.90
36660;DHT22;22654;51.054;3.654;2022-11-25T18:22:51;7.40;99.90
36660;DHT22;22654;51.054;3.654;2022-11-25T18:25:22;7.30;99.90